createdAt,value
2022-11-13T00:01:30.722Z,85.4
2022-11-13T00:03:28.322Z,71.3
2022-11-13T00:07:31.435Z,72.9
2022-11-13T00:09:29.031Z,77.8
2022-11-13T00:11:26.606Z,72.5
2022-11-13T00:15:21.836Z,57
2022-11-13T00:17:19.465Z,73
2022-11-13T00:19:24.938Z,69.8
2022-11-13T00:21:22.561Z,75.5
2022-11-13T00:23:20.158Z,63.6
2022-11-13T00:25:17.786Z,80.7
2022-11-13T00:29:12.949Z,65.3
2022-11-13T00:31:10.564Z,53
2022-11-13T00:33:26.525Z,47.9
2022-11-13T00:35:13.696Z,53.8
2022-11-13T00:37:11.318Z,48.7
2022-11-13T00:38:14.059Z,52.7
2022-11-13T00:40:11.667Z,44.7
2022-11-13T00:42:09.290Z,60.1
2022-11-13T00:44:06.947Z,90
2022-11-13T00:46:12.433Z,95.1
2022-11-13T00:48:10.033Z,62.2
2022-11-13T00:50:07.626Z,73.2
2022-11-13T00:52:05.256Z,75.8
2022-11-13T00:54:02.861Z,63.1
2022-11-13T00:56:00.493Z,76.5
2022-11-13T00:57:58.080Z,78
2022-11-13T01:00:03.601Z,80.8
2022-11-13T01:02:01.277Z,84.3
2022-11-13T01:03:58.819Z,63
2022-11-13T01:05:56.439Z,56.6
2022-11-13T01:07:54.063Z,57.9
2022-11-13T01:09:51.650Z,54.5
2022-11-13T01:11:49.268Z,57.9
2022-11-13T01:13:54.803Z,70.7
2022-11-13T01:17:50.011Z,79
2022-11-13T01:19:47.641Z,66.4
2022-11-13T01:21:45.212Z,62.8
2022-11-13T01:23:42.829Z,45.3
2022-11-13T01:25:40.407Z,53.9
2022-11-13T01:27:45.894Z,51.8
2022-11-13T01:29:43.486Z,44.3
2022-11-13T01:31:41.100Z,56
2022-11-13T01:34:08.075Z,47.1
2022-11-13T01:36:05.808Z,54.6
2022-11-13T01:38:03.290Z,45.4
2022-11-13T01:40:08.806Z,41.8
2022-11-13T01:42:06.416Z,54.7
2022-11-13T01:44:04.031Z,35.8
2022-11-13T01:46:01.613Z,39.9
2022-11-13T01:47:59.238Z,30.2
2022-11-13T01:49:56.826Z,30.2
2022-11-13T01:51:54.416Z,40.2
2022-11-13T01:53:59.951Z,32.9
2022-11-13T01:57:55.153Z,36.1
2022-11-13T01:59:52.750Z,29
2022-11-13T02:01:50.415Z,31.6
2022-11-13T02:03:47.961Z,37.4
2022-11-13T02:09:48.677Z,43.2
2022-11-13T02:11:46.271Z,35.5
2022-11-13T02:13:43.890Z,29.5
2022-11-13T02:15:41.481Z,26.1
2022-11-13T02:17:39.111Z,28.4
2022-11-13T02:19:36.691Z,30.6
2022-11-13T02:21:42.182Z,44.2
2022-11-13T02:23:39.791Z,34.4
2022-11-13T02:26:40.146Z,30.8
2022-11-13T02:28:37.771Z,31.1
2022-11-13T02:30:35.338Z,36.3
2022-11-13T02:32:32.964Z,38.8
2022-11-13T02:34:38.468Z,37.9
2022-11-13T02:36:36.089Z,30.3
2022-11-13T02:38:33.650Z,30
2022-11-13T02:40:31.266Z,28.7
2022-11-13T02:42:28.887Z,32.9
2022-11-13T02:44:26.473Z,32.6
2022-11-13T02:46:24.082Z,33.9
2022-11-13T02:48:29.954Z,36.2
2022-11-13T02:50:27.155Z,33.4
2022-11-13T02:52:24.827Z,24.1
2022-11-13T02:56:19.978Z,35.7
2022-11-13T03:00:15.185Z,30.5
2022-11-13T03:02:22.246Z,39.2
2022-11-13T03:04:19.769Z,40.7
2022-11-13T03:06:17.392Z,30.3
2022-11-13T03:08:14.972Z,43.7
2022-11-13T03:10:12.557Z,34.9
2022-11-13T03:12:10.184Z,36.7
2022-11-13T03:14:07.784Z,31
2022-11-13T03:16:13.285Z,34.7
2022-11-13T03:18:10.867Z,31.3
2022-11-13T03:20:08.487Z,34.7
2022-11-13T03:21:11.230Z,35.5
2022-11-13T03:23:08.807Z,37.9
2022-11-13T03:25:10.494Z,31.1
2022-11-13T03:27:04.022Z,33.6
2022-11-13T03:29:09.511Z,40.1
2022-11-13T03:31:07.107Z,32.3
2022-11-13T03:33:04.727Z,35.3
2022-11-13T03:35:02.337Z,27.6
2022-11-13T03:36:59.919Z,31.6
2022-11-13T03:38:57.548Z,30.9
2022-11-13T03:40:55.132Z,37.3
2022-11-13T03:43:00.657Z,30.3
2022-11-13T03:44:58.259Z,31.5
2022-11-13T03:46:55.851Z,30
2022-11-13T03:48:53.468Z,29.3
2022-11-13T03:50:51.054Z,24
2022-11-13T03:52:48.645Z,28.7
2022-11-13T03:54:46.239Z,27.6
2022-11-13T03:56:52.417Z,25.4
2022-11-13T03:58:50.020Z,25.6
2022-11-13T04:00:47.617Z,31.2
2022-11-13T04:02:45.223Z,36.8
2022-11-13T04:04:42.811Z,37.4
2022-11-13T04:06:40.534Z,31
2022-11-13T04:12:41.129Z,21.1
2022-11-13T04:14:38.722Z,31.3
2022-11-13T04:15:41.457Z,27.7
2022-11-13T04:17:39.030Z,23.4
2022-11-13T04:21:34.270Z,41.9
2022-11-13T04:23:39.737Z,35
2022-11-13T04:27:34.927Z,30.3
2022-11-13T04:31:30.129Z,32.4
2022-11-13T04:35:25.286Z,22.9
2022-11-13T04:43:23.542Z,26.6
2022-11-13T04:45:21.148Z,22.7
2022-11-13T04:47:18.753Z,38.4
2022-11-13T04:51:21.826Z,18.8
2022-11-13T04:53:19.438Z,30.4
2022-11-13T04:55:17.046Z,27.6
2022-11-13T04:57:14.649Z,27.2
2022-11-13T04:59:12.201Z,28.6
2022-11-13T05:01:09.976Z,22.7
2022-11-13T05:03:07.390Z,29.9
2022-11-13T05:05:12.887Z,20.5
2022-11-13T05:07:10.545Z,29.5
2022-11-13T05:09:08.087Z,24.9
2022-11-13T05:11:35.173Z,26.8
2022-11-13T05:13:32.583Z,27.7
2022-11-13T05:15:30.196Z,23.4
2022-11-13T05:17:35.653Z,31.6
2022-11-13T05:19:33.244Z,24.1
2022-11-13T05:21:30.852Z,25.1
2022-11-13T05:23:28.423Z,54.2
2022-11-13T05:25:26.039Z,24
2022-11-13T05:27:23.589Z,29.7
2022-11-13T05:31:26.636Z,28.6
2022-11-13T05:37:19.397Z,24.4
2022-11-13T05:39:16.972Z,21.4
2022-11-13T05:45:17.619Z,28.9
2022-11-13T05:47:15.175Z,24.8
2022-11-13T05:51:10.363Z,40.1
2022-11-13T05:53:07.939Z,36.2
2022-11-13T05:55:05.540Z,23.5
2022-11-13T05:57:03.115Z,22.1
2022-11-13T05:59:08.614Z,24.8
2022-11-13T06:01:06.193Z,31.3
2022-11-13T06:03:03.782Z,30.7
2022-11-13T06:06:04.093Z,23.6
2022-11-13T06:08:01.654Z,25.2
2022-11-13T06:09:59.264Z,27.6
2022-11-13T06:12:04.781Z,33.8
2022-11-13T06:14:02.358Z,26.4
2022-11-13T06:15:59.942Z,31
2022-11-13T06:17:57.518Z,22.6
2022-11-13T06:19:55.106Z,33.4
2022-11-13T06:21:52.646Z,21.1
2022-11-13T06:23:50.257Z,32.6
2022-11-13T06:25:55.724Z,23.5
2022-11-13T06:27:53.307Z,23.5
2022-11-13T06:29:50.898Z,34
2022-11-13T06:31:48.469Z,21.2
2022-11-13T06:33:46.065Z,24.3
2022-11-13T06:35:43.624Z,25.7
2022-11-13T06:37:41.205Z,28
2022-11-13T06:39:46.693Z,22.5
2022-11-13T06:41:44.284Z,27.5
2022-11-13T06:45:39.432Z,27.3
2022-11-13T06:47:37.015Z,29.3
2022-11-13T06:49:34.583Z,30.8
2022-11-13T06:51:32.187Z,26.6
2022-11-13T06:53:37.643Z,26.5
2022-11-13T06:55:35.234Z,27.9
2022-11-13T06:57:32.828Z,23.5
2022-11-13T06:58:35.561Z,26.1
2022-11-13T07:00:36.703Z,28.3
2022-11-13T07:02:30.715Z,26.5
2022-11-13T07:04:28.416Z,28.5
2022-11-13T07:06:39.088Z,28.7
2022-11-13T07:08:31.710Z,27.8
2022-11-13T07:10:28.925Z,32.3
2022-11-13T07:12:26.536Z,25
2022-11-13T07:14:24.071Z,24.7
2022-11-13T07:16:21.652Z,27.8
2022-11-13T07:18:23.827Z,34.3
2022-11-13T07:20:24.694Z,29.4
2022-11-13T07:22:22.273Z,23.1
2022-11-13T07:24:19.861Z,28.9
2022-11-13T07:26:17.451Z,24.2
2022-11-13T07:28:15.035Z,35
2022-11-13T07:32:10.214Z,21.1
2022-11-13T07:36:13.255Z,26.3
2022-11-13T07:40:08.578Z,31
2022-11-13T07:44:07.974Z,29.7
2022-11-13T07:50:08.358Z,34.8
2022-11-13T07:52:01.820Z,43.8
2022-11-13T07:53:04.569Z,32.7
2022-11-13T07:55:02.138Z,34.6
2022-11-13T07:56:59.718Z,37.5
2022-11-13T07:58:57.313Z,30.4
2022-11-13T08:01:02.880Z,34.5
2022-11-13T08:03:00.376Z,38.8
2022-11-13T08:04:57.927Z,45.8
2022-11-13T08:06:55.571Z,29.7
2022-11-13T08:10:50.679Z,37.1
2022-11-13T08:12:48.252Z,39.7
2022-11-13T08:14:53.771Z,32.5
2022-11-13T08:16:51.322Z,33.8
2022-11-13T08:20:46.467Z,41.8
2022-11-13T08:22:44.058Z,28.8
2022-11-13T08:24:41.643Z,31
2022-11-13T08:26:39.237Z,34.7
2022-11-13T08:28:44.710Z,35
2022-11-13T08:30:42.336Z,32.8
2022-11-13T08:32:39.922Z,29.4
2022-11-13T08:34:37.528Z,27.7
2022-11-13T08:36:35.107Z,36.7
2022-11-13T08:42:35.757Z,35.6
2022-11-13T08:44:34.902Z,33.2
2022-11-13T08:46:32.442Z,32.3
2022-11-13T08:48:59.416Z,34.2
2022-11-13T08:52:54.584Z,31.5
2022-11-13T08:55:00.108Z,38.5
2022-11-13T08:57:02.020Z,36.1
2022-11-13T09:00:52.868Z,31.9
2022-11-13T09:02:50.457Z,28.6
2022-11-13T09:04:48.056Z,39.6
2022-11-13T09:06:45.710Z,32.4
2022-11-13T09:08:51.126Z,36.3
2022-11-13T09:10:48.733Z,30.9
2022-11-13T09:12:46.341Z,39
2022-11-13T09:14:43.916Z,29.1
2022-11-13T09:16:41.521Z,24.7
2022-11-13T09:18:39.128Z,30.7
2022-11-13T09:20:36.729Z,23.5
2022-11-13T09:22:42.264Z,27.9
2022-11-13T09:24:39.831Z,28.9
2022-11-13T09:26:37.453Z,29.4
2022-11-13T09:28:35.053Z,29.6
2022-11-13T09:30:32.650Z,29.8
2022-11-13T09:34:27.861Z,34.8
2022-11-13T09:36:33.364Z,26.3
2022-11-13T09:41:31.341Z,27.9
2022-11-13T09:43:29.069Z,22.3
2022-11-13T09:45:26.552Z,24.6
2022-11-13T09:47:24.182Z,26.4
2022-11-13T09:49:29.691Z,27.4
2022-11-13T09:51:27.266Z,20.6
2022-11-13T09:53:24.882Z,22.6
2022-11-13T09:57:25.616Z,18
2022-11-13T09:59:17.715Z,23.3
2022-11-13T10:01:15.368Z,26.3
2022-11-13T10:03:46.307Z,22.4
2022-11-13T10:09:13.711Z,23.2
2022-11-13T10:13:08.937Z,22.1
2022-11-13T10:15:06.563Z,27
2022-11-13T10:19:09.674Z,19.2
2022-11-13T10:25:02.557Z,19.7
2022-11-13T10:27:00.168Z,25.7
2022-11-13T10:28:57.841Z,22.3
2022-11-13T10:31:03.300Z,23.9
2022-11-13T10:33:00.910Z,16.6
2022-11-13T10:38:02.113Z,18.7
2022-11-13T10:39:56.642Z,23.8
2022-11-13T10:41:54.149Z,38
2022-11-13T10:43:59.671Z,19.6
2022-11-13T10:45:57.335Z,21.2
2022-11-13T10:48:04.343Z,18.4
2022-11-13T10:49:52.556Z,19.1
2022-11-13T10:51:50.182Z,14.2
2022-11-13T10:53:47.805Z,16.2
2022-11-13T10:55:45.403Z,18.8
2022-11-13T10:59:48.586Z,16.4
2022-11-13T11:01:46.190Z,21.2
2022-11-13T11:03:43.815Z,18.1
2022-11-13T11:09:36.705Z,14.1
2022-11-13T11:11:42.273Z,19.7
2022-11-13T11:17:35.146Z,25.3
2022-11-13T11:21:30.377Z,12.9
2022-11-13T11:23:28.009Z,15.6
2022-11-13T11:25:33.545Z,24.9
2022-11-13T11:27:31.152Z,15.6
2022-11-13T11:29:28.780Z,15.1
2022-11-13T11:30:31.566Z,12.7
2022-11-13T11:32:29.162Z,13.7
2022-11-13T11:34:26.789Z,18
2022-11-13T11:36:24.383Z,16.7
2022-11-13T11:38:30.189Z,13.2
2022-11-13T11:40:27.521Z,15.9
2022-11-13T11:42:25.132Z,14.8
2022-11-13T11:44:22.714Z,14.7
2022-11-13T11:46:20.298Z,19.1
2022-11-13T11:48:17.883Z,17.3
2022-11-13T11:50:15.656Z,14.2
2022-11-13T11:54:18.607Z,15.2
2022-11-13T11:56:16.199Z,22.4
2022-11-13T11:58:13.763Z,14.3
2022-11-13T12:00:11.334Z,22.9
2022-11-13T12:02:08.901Z,9.7
2022-11-13T12:04:06.438Z,11.1
2022-11-13T12:10:07.046Z,20.5
2022-11-13T12:12:04.570Z,13
2022-11-13T12:14:02.114Z,12.7
2022-11-13T12:15:59.621Z,13.8
2022-11-13T12:17:57.132Z,13.7
2022-11-13T12:20:02.634Z,10
2022-11-13T12:22:00.150Z,11.5
2022-11-13T12:23:57.968Z,11.5
2022-11-13T12:26:24.733Z,11
2022-11-13T12:30:19.736Z,13.9
2022-11-13T12:32:25.159Z,14.3
2022-11-13T12:40:15.033Z,10.3
2022-11-13T12:42:12.495Z,19.4
2022-11-13T12:46:15.396Z,13.5
2022-11-13T12:52:07.736Z,8.7
2022-11-13T12:54:05.170Z,8.2
2022-11-13T12:58:00.158Z,16.4
2022-11-13T13:00:05.593Z,8.7
2022-11-13T13:02:03.100Z,9.3
2022-11-13T13:05:58.149Z,11.9
2022-11-13T13:07:55.672Z,10.7
2022-11-13T13:09:53.251Z,10.5
2022-11-13T13:11:50.770Z,9.4
2022-11-13T13:13:56.328Z,12
2022-11-13T13:15:53.846Z,9.7
2022-11-13T13:17:51.424Z,11.1
2022-11-13T13:20:51.733Z,11.4
2022-11-13T13:22:49.311Z,11.9
2022-11-13T13:24:46.872Z,13.4
2022-11-13T13:26:52.666Z,10.6
2022-11-13T13:28:49.997Z,23.8
2022-11-13T13:32:45.183Z,20.7
2022-11-13T13:34:42.774Z,15.1
2022-11-13T13:36:40.359Z,17.4
2022-11-13T13:38:37.992Z,20.5
2022-11-13T13:40:43.507Z,14
2022-11-13T13:42:41.111Z,12.6
2022-11-13T13:44:38.717Z,12.8
2022-11-13T13:46:36.318Z,16.5
2022-11-13T13:48:33.934Z,12.3
2022-11-13T13:50:31.509Z,11.9
2022-11-13T13:52:29.170Z,15.9
2022-11-13T13:54:34.708Z,12.7
2022-11-13T13:56:32.427Z,12.5
2022-11-13T14:00:27.552Z,12.4
2022-11-13T14:02:25.244Z,10.1
2022-11-13T14:08:26.208Z,13.2
2022-11-13T14:10:23.547Z,21.2
2022-11-13T14:13:23.929Z,14.6
2022-11-13T14:15:21.509Z,11.4
2022-11-13T14:17:19.145Z,11.9
2022-11-13T14:19:16.766Z,11.6
2022-11-13T14:21:22.283Z,12.4
2022-11-13T14:23:19.920Z,15.8
2022-11-13T14:25:19.116Z,12.4
2022-11-13T14:27:16.665Z,16.2
2022-11-13T14:29:14.260Z,17.1
2022-11-13T14:31:11.889Z,14
2022-11-13T14:35:15.044Z,12.3
2022-11-13T14:41:07.911Z,12.5
2022-11-13T14:43:05.530Z,15
2022-11-13T14:45:03.161Z,26.7
2022-11-13T14:47:00.770Z,12.2
2022-11-13T14:51:03.966Z,15.6
2022-11-13T14:53:01.579Z,17.2
2022-11-13T14:55:14.780Z,16.8
2022-11-13T14:56:56.972Z,15.7
2022-11-13T14:58:54.448Z,25.3
2022-11-13T15:02:57.651Z,14
2022-11-13T15:04:55.240Z,19.7
2022-11-13T15:06:52.936Z,14.7
2022-11-13T15:07:55.661Z,16.9
2022-11-13T15:09:53.285Z,14.7
2022-11-13T15:11:50.895Z,17.9
2022-11-13T15:13:50.044Z,12.9
2022-11-13T15:15:54.031Z,16.4
2022-11-13T15:17:51.696Z,15.3
2022-11-13T15:19:49.339Z,21.6
2022-11-13T15:22:05.452Z,23.6
2022-11-13T15:23:44.587Z,13.8
2022-11-13T15:31:43.018Z,16.1
2022-11-13T15:33:40.627Z,18.5
2022-11-13T15:37:35.888Z,20.2
2022-11-13T15:39:33.516Z,18
2022-11-13T15:45:34.304Z,21.3
2022-11-13T15:47:31.920Z,14.7
2022-11-13T15:49:29.576Z,15.4
2022-11-13T15:51:27.228Z,20.2
2022-11-13T15:53:24.851Z,17.6
2022-11-13T15:55:22.484Z,20.4
2022-11-13T15:57:28.029Z,20.1
2022-11-13T15:59:25.691Z,24.9
2022-11-13T16:01:23.467Z,23.1
2022-11-13T16:03:46.293Z,37.2
2022-11-13T16:05:43.921Z,19.9
2022-11-13T16:07:42.403Z,21.6
2022-11-13T16:09:47.101Z,22.2
2022-11-13T16:11:44.748Z,24.2
2022-11-13T16:13:42.358Z,25.8
2022-11-13T16:19:35.284Z,25.3
2022-11-13T16:25:36.105Z,32.3
2022-11-13T16:27:33.761Z,33.5
2022-11-13T16:29:31.391Z,28.1
2022-11-13T16:31:29.014Z,26.8
2022-11-13T16:33:27.100Z,37.9
2022-11-13T16:35:24.284Z,25
2022-11-13T16:37:29.830Z,40.9
2022-11-13T16:41:25.088Z,71.2
2022-11-13T16:43:22.769Z,34
2022-11-13T16:45:20.403Z,31.3
2022-11-13T16:47:18.026Z,27.1
2022-11-13T16:49:15.660Z,38.9
2022-11-13T16:51:21.215Z,36.3
2022-11-13T16:53:18.862Z,41.4
2022-11-13T16:55:16.523Z,39.9
2022-11-13T16:56:19.284Z,35.2
2022-11-13T16:58:16.928Z,35.6
2022-11-13T17:00:14.533Z,37.8
2022-11-13T17:02:12.185Z,34.9
2022-11-13T17:04:17.726Z,29.9
2022-11-13T17:06:15.354Z,42.6
2022-11-13T17:12:08.263Z,43.1
2022-11-13T17:14:05.893Z,37.1
2022-11-13T17:16:03.525Z,46.4
2022-11-13T17:20:06.720Z,44.6
2022-11-13T17:22:04.350Z,48.6
2022-11-13T17:24:01.997Z,33.9
2022-11-13T17:27:57.266Z,42.4
2022-11-13T17:29:54.941Z,44.1
2022-11-13T17:32:00.449Z,39.8
2022-11-13T17:35:55.692Z,42.3
2022-11-13T17:37:53.312Z,52.3
2022-11-13T17:39:50.951Z,54
2022-11-13T17:41:48.578Z,49.3
2022-11-13T17:43:46.205Z,51.7
2022-11-13T17:47:49.362Z,46.9
2022-11-13T17:49:47.019Z,43.9
2022-11-13T17:52:47.389Z,35.6
2022-11-13T17:54:45.074Z,46.4
2022-11-13T17:56:42.695Z,53.7
2022-11-13T17:58:48.244Z,44.9
2022-11-13T18:00:45.847Z,41.3
2022-11-13T18:02:43.486Z,56.3
2022-11-13T18:04:41.097Z,43.5
2022-11-13T18:06:38.782Z,40.1
2022-11-13T18:08:36.361Z,47.9
2022-11-13T18:10:33.983Z,77.5
2022-11-13T18:12:39.502Z,49
2022-11-13T18:14:37.109Z,53.3
2022-11-13T18:16:34.734Z,48.7
2022-11-13T18:20:30.020Z,43.2
2022-11-13T18:22:27.648Z,61.2
2022-11-13T18:24:25.342Z,59.9
2022-11-13T18:30:26.071Z,69.8
2022-11-13T18:32:23.700Z,60.8
2022-11-13T18:34:21.319Z,73.1
2022-11-13T18:36:18.959Z,71.2
2022-11-13T18:38:16.575Z,63.2
2022-11-13T18:40:22.121Z,57.3
2022-11-13T18:42:19.753Z,51.1
2022-11-13T18:44:17.359Z,46.1
2022-11-13T18:49:15.389Z,54.9
2022-11-13T18:51:12.988Z,58.4
2022-11-13T18:53:18.518Z,51.6
2022-11-13T18:55:16.145Z,59.1
2022-11-13T18:57:13.778Z,50.7
2022-11-13T18:59:11.428Z,52.4
2022-11-13T19:01:09.085Z,71.1
2022-11-13T19:03:06.651Z,64.2
2022-11-13T19:05:04.278Z,70.3
2022-11-13T19:07:09.922Z,74.9
2022-11-13T19:09:07.407Z,70.7
2022-11-13T19:11:05.034Z,75.2
2022-11-13T19:13:02.688Z,62.7
2022-11-13T19:15:00.277Z,66.4
2022-11-13T19:16:57.936Z,62.8
2022-11-13T19:18:55.543Z,74.2
2022-11-13T19:21:01.077Z,64.7
2022-11-13T19:24:56.301Z,58.6
2022-11-13T19:26:53.933Z,64.9
2022-11-13T19:32:46.763Z,57.3
2022-11-13T19:38:47.519Z,48.7
2022-11-13T19:41:14.487Z,65.5
2022-11-13T19:45:09.696Z,50.7
2022-11-13T19:47:15.227Z,53.1
2022-11-13T19:49:12.855Z,60.8
2022-11-13T19:53:08.074Z,45.9
2022-11-13T19:55:05.708Z,57.5
2022-11-13T19:57:03.482Z,55.6
2022-11-13T19:59:00.903Z,54.9
2022-11-13T20:03:07.651Z,61.1
2022-11-13T20:05:01.668Z,47.7
2022-11-13T20:07:00.866Z,48.8
2022-11-13T20:08:58.399Z,52.3
2022-11-13T20:10:56.027Z,43.2
2022-11-13T20:12:53.614Z,37.3
2022-11-13T20:14:59.132Z,47.2
2022-11-13T20:16:56.746Z,36
2022-11-13T20:18:54.381Z,43.8
2022-11-13T20:22:49.554Z,71.5
2022-11-13T20:26:44.736Z,48.9
2022-11-13T20:30:47.870Z,50.1
2022-11-13T20:32:45.447Z,47.2
2022-11-13T20:33:48.231Z,47.3
2022-11-13T20:35:45.828Z,50
2022-11-13T20:37:43.423Z,46.5
2022-11-13T20:39:41.041Z,45.7
2022-11-13T20:41:46.550Z,48.4
2022-11-13T20:43:44.168Z,62.6
2022-11-13T20:51:34.615Z,55.5
2022-11-13T20:55:37.709Z,46
2022-11-13T20:57:40.604Z,46.3
2022-11-13T20:59:32.927Z,50.1
2022-11-13T21:01:30.617Z,64.9
2022-11-13T21:03:28.116Z,52.4
2022-11-13T21:05:25.722Z,55.6
2022-11-13T21:07:23.449Z,40.3
2022-11-13T21:09:28.833Z,39.6
2022-11-13T21:11:26.485Z,45.9
2022-11-13T21:13:24.038Z,55
2022-11-13T21:15:21.624Z,51.1
2022-11-13T21:17:19.258Z,50.8
2022-11-13T21:19:16.859Z,55.2
2022-11-13T21:21:14.458Z,47.2
2022-11-13T21:23:19.967Z,46
2022-11-13T21:25:17.551Z,57.1
2022-11-13T21:27:15.170Z,59.6
2022-11-13T21:30:15.549Z,60.8
2022-11-13T21:32:13.166Z,53.4
2022-11-13T21:34:10.776Z,40.2
2022-11-13T21:36:16.248Z,39.2
2022-11-13T21:38:13.856Z,46
2022-11-13T21:40:11.462Z,39.1
2022-11-13T21:42:09.097Z,33.9
2022-11-13T21:46:04.282Z,32.7
2022-11-13T21:48:01.912Z,35.2
2022-11-13T21:52:04.978Z,37.4
2022-11-13T21:56:00.197Z,33.1
2022-11-13T21:57:57.793Z,37.9
2022-11-13T21:59:55.431Z,38.7
2022-11-13T22:01:53.085Z,25.9
2022-11-13T22:03:58.512Z,34.5
2022-11-13T22:05:56.117Z,36.3
2022-11-13T22:07:53.707Z,37.1
2022-11-13T22:09:51.314Z,43.8
2022-11-13T22:11:48.923Z,43.9
2022-11-13T22:13:46.532Z,29.4
2022-11-13T22:15:44.120Z,28.3
2022-11-13T22:17:49.625Z,32.7
2022-11-13T22:19:47.318Z,38.1
2022-11-13T22:21:44.871Z,37.9
2022-11-13T22:22:47.614Z,32.8
2022-11-13T22:24:45.198Z,29.2
2022-11-13T22:30:45.893Z,30.2
2022-11-13T22:34:41.092Z,33.5
2022-11-13T22:36:38.678Z,26.2
2022-11-13T22:38:36.261Z,32.5
2022-11-13T22:40:33.859Z,27.7
2022-11-13T22:42:31.487Z,35.4
2022-11-13T22:44:54.818Z,35.5
2022-11-13T22:46:34.555Z,31.7
2022-11-13T22:48:32.330Z,37.5
2022-11-13T22:50:29.737Z,29.7
2022-11-13T22:52:27.340Z,44.2
2022-11-13T22:54:24.917Z,28.3
2022-11-13T22:56:22.498Z,51.3
2022-11-13T22:58:28.209Z,43.5
2022-11-13T23:00:25.585Z,48.4
2022-11-13T23:06:18.384Z,46.1
2022-11-13T23:08:15.971Z,45.1
2022-11-13T23:14:16.658Z,48.3
2022-11-13T23:16:14.250Z,42.6
2022-11-13T23:18:41.213Z,54
2022-11-13T23:20:38.796Z,47.6
2022-11-13T23:22:36.356Z,46.8
2022-11-13T23:24:41.847Z,54.7
2022-11-13T23:26:39.435Z,57.1
2022-11-13T23:28:36.991Z,49.7
2022-11-13T23:30:34.602Z,55.8
2022-11-13T23:32:32.215Z,44.6
2022-11-13T23:34:53.218Z,44.5
2022-11-13T23:36:27.364Z,54.3
2022-11-13T23:38:33.054Z,57.5
2022-11-13T23:40:30.447Z,64.2
2022-11-13T23:42:53.629Z,53
2022-11-13T23:44:25.613Z,50
2022-11-13T23:58:16.620Z,56.8
